Airfield :
LOGIN :

Register | Disclaimer

   EN    FR    IT 

 










Legend :    VFR   Marginal VFR   IFR   Intensive IFR   Very Intensive IFR
Visi :
Ceiling :
>= 8 km
>= 3000ft
5 to 8 km
1000 to 3000 ft
1500m to 5 km
500 to 1000 ft
800 to 1500m
200 to 500 ft
< 800m
< 200 ft
Symbols :   Thunderstorms  Fog  Heavy snow  Heavy precipitations  Wind > 20 kt
SIGMETs :     Misc.  Thunderstorms  Icing  Turbulence  Mountain Waves  Volcanic Ashes






- Airport Elevation : 348 ft
- IATA code : STN


EGSS - London Stansted

CURRENT METAR :
  • 230750Z AUTO 19008KT 9999 NCD 12/11 Q1007

EXPIRED METARs :
  • 230720Z AUTO 19009KT 7000 BKN004 BKN007 11/11 Q1007
  • 230650Z AUTO 18010KT 6000 BKN003 OVC009 11/11 Q1007
  • 230620Z AUTO 18011KT 4900 BR BKN002 OVC010 11/11 Q1007
  • 230550Z AUTO 18012KT 4300 BR OVC002 11/11 Q1007
  • 230520Z AUTO 18011KT 3000 BR OVC001 11/11 Q1007

TAF TAF EGSS
Valid from the 23 at 06:00 until the 24 at 12:00 UTC


230506Z 2306/2412 17004KT 0300 FG BKN000
BECMG 2306/2309 23010KT 9999 NSW SCT030
PROB30
TEMPO 2306/2308 SHRA
TEMPO 2309/2311 8000 -SHRA BKN012
TEMPO 2314/2317 8000 -RA BKN014
BECMG 2410/2412 19018G30KT
TEMPO 2410/2412 8000 -RA BKN014
ATIS : +44 1279 669 325



MET'MAP, your aeronautical weather chart ! - Copyright ORBIFLY December 2007 - Disclaimer

ORBIFLY MET'MAP TEAM :

Programming & Development : Alexandra Zaïnal
Concept & original design : Baudouin d'Aumeries
Assistance for programming : Marc-Olivier Méhu
Technical & hardware support : Manuel Goepfert

Contact : metmap@orbifly.com




SOURCES & CREDITS :

   NOAA